createdAt,value
2022-08-18T00:00:37.746Z,7.65
2022-08-18T00:03:56.734Z,6.93
2022-08-18T00:07:00.928Z,7.00
2022-08-18T00:10:03.166Z,9.38
2022-08-18T00:13:04.437Z,6.18
2022-08-18T00:16:05.874Z,7.35
2022-08-18T00:19:09.395Z,7.72
2022-08-18T00:22:14.833Z,7.47
2022-08-18T00:25:17.722Z,6.63
2022-08-18T00:28:19.363Z,6.25
2022-08-18T00:31:26.895Z,6.28
2022-08-18T00:34:28.171Z,6.60
2022-08-18T00:37:33.705Z,6.15
2022-08-18T00:40:41.195Z,5.80
2022-08-18T00:43:46.794Z,7.38
2022-08-18T00:46:48.078Z,5.78
2022-08-18T00:49:51.852Z,5.78
2022-08-18T00:52:55.696Z,5.93
2022-08-18T00:55:59.922Z,6.65
2022-08-18T00:59:14.388Z,5.22
2022-08-18T01:02:35.921Z,6.00
2022-08-18T01:05:43.280Z,5.15
2022-08-18T01:08:44.650Z,5.43
2022-08-18T01:11:47.655Z,6.20
2022-08-18T01:14:48.991Z,4.70
2022-08-18T01:18:09.313Z,5.57
2022-08-18T01:21:40.710Z,5.60
2022-08-18T01:25:00.537Z,5.68
2022-08-18T01:28:03.319Z,5.60
2022-08-18T01:31:05.249Z,5.97
2022-08-18T01:34:07.622Z,6.97
2022-08-18T01:37:10.085Z,5.10
2022-08-18T01:41:22.676Z,5.32
2022-08-18T01:43:34.663Z,5.78
2022-08-18T01:46:35.969Z,5.22
2022-08-18T01:49:37.937Z,6.28
2022-08-18T01:52:39.683Z,5.25
2022-08-18T01:55:45.138Z,7.07
2022-08-18T01:58:47.755Z,4.82
2022-08-18T02:01:53.374Z,5.28
2022-08-18T02:04:56.504Z,5.45
2022-08-18T02:07:57.868Z,4.88
2022-08-18T02:10:59.282Z,6.60
2022-08-18T02:14:00.615Z,5.18
2022-08-18T02:17:03.040Z,5.13
2022-08-18T02:20:04.618Z,4.90
2022-08-18T02:23:05.918Z,4.45
2022-08-18T02:26:08.624Z,4.72
2022-08-18T02:29:09.940Z,4.90
2022-08-18T02:32:11.252Z,4.97
2022-08-18T02:35:12.781Z,5.82
2022-08-18T02:38:14.106Z,5.10
2022-08-18T02:41:20.241Z,4.80
2022-08-18T02:44:21.575Z,6.10
2022-08-18T02:47:23.009Z,6.68
2022-08-18T02:50:25.050Z,6.57
2022-08-18T02:53:27.278Z,5.22
2022-08-18T02:56:32.774Z,5.95
2022-08-18T02:59:42.206Z,4.20
2022-08-18T03:02:51.300Z,4.30
2022-08-18T03:08:54.243Z,4.55
2022-08-18T03:11:55.907Z,4.25
2022-08-18T03:14:57.207Z,4.97
2022-08-18T03:17:58.554Z,5.72
2022-08-18T03:21:10.054Z,4.93
2022-08-18T03:24:12.297Z,5.47
2022-08-18T03:27:13.632Z,6.70
2022-08-18T03:30:14.949Z,5.55
2022-08-18T03:33:16.265Z,6.93
2022-08-18T03:36:18.974Z,5.43
2022-08-18T03:39:23.587Z,5.40
2022-08-18T03:42:25.035Z,5.18
2022-08-18T03:45:31.815Z,5.00
2022-08-18T03:48:33.577Z,6.13
2022-08-18T03:51:35.024Z,6.13
2022-08-18T03:54:38.854Z,4.88
2022-08-18T03:57:40.178Z,4.85
2022-08-18T04:00:41.594Z,5.68
2022-08-18T04:03:43.629Z,5.47
2022-08-18T04:06:50.310Z,5.05
2022-08-18T04:09:51.615Z,6.25
2022-08-18T04:12:52.936Z,5.45
2022-08-18T04:15:54.245Z,4.75
2022-08-18T04:19:00.326Z,5.68
2022-08-18T04:22:05.131Z,7.88
2022-08-18T04:25:09.313Z,6.72
2022-08-18T04:28:10.598Z,5.65
2022-08-18T04:31:13.137Z,6.53
2022-08-18T04:34:14.858Z,5.53
2022-08-18T04:37:16.836Z,5.72
2022-08-18T04:40:22.831Z,5.30
2022-08-18T04:43:26.221Z,7.13
2022-08-18T04:46:27.923Z,6.20
2022-08-18T04:49:30.269Z,6.05
2022-08-18T04:52:50.079Z,5.85
2022-08-18T04:55:52.493Z,5.70
2022-08-18T04:59:00.228Z,5.20
2022-08-18T05:02:01.594Z,7.20
2022-08-18T05:05:04.050Z,5.93
2022-08-18T05:08:05.727Z,6.03
2022-08-18T05:11:07.182Z,5.95
2022-08-18T05:14:08.700Z,6.97
2022-08-18T05:17:10.321Z,5.30
2022-08-18T05:20:11.761Z,7.20
2022-08-18T05:23:13.058Z,5.75
2022-08-18T05:26:15.370Z,6.60
2022-08-18T05:29:18.799Z,5.50
2022-08-18T05:32:38.385Z,6.82
2022-08-18T05:35:54.425Z,6.82
2022-08-18T05:39:21.766Z,6.28
2022-08-18T05:42:25.630Z,5.50
2022-08-18T05:45:27.249Z,5.85
2022-08-18T05:48:28.541Z,5.68
2022-08-18T05:51:33.389Z,5.82
2022-08-18T05:55:01.609Z,8.02
2022-08-18T05:58:09.503Z,6.55
2022-08-18T06:01:36.959Z,6.63
2022-08-18T06:04:44.239Z,5.80
2022-08-18T06:07:51.324Z,5.60
2022-08-18T06:10:52.698Z,7.47
2022-08-18T06:13:57.831Z,9.70
2022-08-18T06:17:14.819Z,5.43
2022-08-18T06:20:18.941Z,6.85
2022-08-18T06:23:20.260Z,6.95
2022-08-18T06:26:32.736Z,6.93
2022-08-18T06:29:53.405Z,8.07
2022-08-18T06:33:02.426Z,8.73
2022-08-18T06:36:10.406Z,5.85
2022-08-18T06:39:35.220Z,7.85
2022-08-18T06:42:40.289Z,8.45
2022-08-18T06:45:44.849Z,6.78
2022-08-18T06:48:49.170Z,7.30
2022-08-18T06:51:50.522Z,7.35
2022-08-18T06:54:53.570Z,7.97
2022-08-18T06:57:57.707Z,7.63
2022-08-18T07:01:05.169Z,11.20
2022-08-18T07:04:06.563Z,7.47
2022-08-18T07:07:14.632Z,7.82
2022-08-18T07:10:16.103Z,8.35
2022-08-18T07:13:22.437Z,7.00
2022-08-18T07:16:47.014Z,6.97
2022-08-18T07:19:54.227Z,7.05
2022-08-18T07:22:55.788Z,6.40
2022-08-18T07:26:06.635Z,7.38
2022-08-18T07:29:15.607Z,7.07
2022-08-18T07:32:21.845Z,6.97
2022-08-18T07:35:37.499Z,8.07
2022-08-18T07:38:44.039Z,7.68
2022-08-18T07:42:04.579Z,7.57
2022-08-18T07:45:12.445Z,6.18
2022-08-18T07:52:14.610Z,9.07
2022-08-18T07:55:33.309Z,6.45
2022-08-18T07:58:37.995Z,6.40
2022-08-18T08:01:52.112Z,6.63
2022-08-18T08:04:53.545Z,5.97
2022-08-18T08:07:59.614Z,6.60
2022-08-18T08:11:12.968Z,6.50
2022-08-18T08:14:14.268Z,6.53
2022-08-18T08:17:18.392Z,7.45
2022-08-18T08:20:32.771Z,7.80
2022-08-18T08:23:44.951Z,7.65
2022-08-18T08:26:55.446Z,7.80
2022-08-18T08:30:14.452Z,7.32
2022-08-18T08:33:28.295Z,6.63
2022-08-18T08:36:34.972Z,7.85
2022-08-18T08:39:39.690Z,7.88
2022-08-18T08:42:50.284Z,7.47
2022-08-18T08:46:03.335Z,6.93
2022-08-18T08:49:11.469Z,7.80
2022-08-18T08:52:12.845Z,7.75
2022-08-18T08:55:17.207Z,7.57
2022-08-18T08:58:40.397Z,8.10
2022-08-18T09:01:45.405Z,7.75
2022-08-18T09:04:54.194Z,8.38
2022-08-18T09:08:16.691Z,7.72
2022-08-18T09:11:27.603Z,6.57
2022-08-18T09:14:47.750Z,8.73
2022-08-18T09:17:50.611Z,8.32
2022-08-18T09:21:13.583Z,7.35
2022-08-18T09:24:24.170Z,7.50
2022-08-18T09:28:08.825Z,8.02
2022-08-18T09:31:03.850Z,7.30
2022-08-18T09:34:25.776Z,7.22
2022-08-18T09:41:02.486Z,8.13
2022-08-18T09:44:21.763Z,8.75
2022-08-18T09:47:28.311Z,8.23
2022-08-18T09:50:38.597Z,10.65
2022-08-18T09:53:46.324Z,10.93
2022-08-18T09:56:54.381Z,9.50
2022-08-18T10:00:02.879Z,9.40
2022-08-18T10:03:11.494Z,8.55
2022-08-18T10:06:17.802Z,10.80
2022-08-18T10:09:36.622Z,8.88
2022-08-18T10:12:52.459Z,9.00
2022-08-18T10:19:42.517Z,10.63
2022-08-18T10:22:46.614Z,9.30
2022-08-18T10:25:48.410Z,10.00
2022-08-18T10:28:54.660Z,11.07
2022-08-18T10:31:57.675Z,12.02
2022-08-18T10:34:59.854Z,10.40
2022-08-18T10:38:02.579Z,11.32
2022-08-18T10:41:15.625Z,10.02
2022-08-18T10:47:42.597Z,11.50
2022-08-18T10:50:50.553Z,9.30
2022-08-18T10:53:59.604Z,11.63
2022-08-18T10:57:06.371Z,10.40
2022-08-18T11:00:13.911Z,9.88
2022-08-18T11:03:50.367Z,11.52
2022-08-18T11:06:47.326Z,11.10
2022-08-18T11:09:57.265Z,10.40
2022-08-18T11:13:24.365Z,11.13
2022-08-18T11:16:30.427Z,10.43
2022-08-18T11:19:36.652Z,9.82
2022-08-18T11:22:52.205Z,12.32
2022-08-18T11:25:53.701Z,10.85
2022-08-18T11:28:55.808Z,11.27
2022-08-18T11:32:17.922Z,11.65
2022-08-18T11:35:20.783Z,9.77
2022-08-18T11:38:23.256Z,11.20
2022-08-18T11:41:33.264Z,11.23
2022-08-18T11:44:48.651Z,9.40
2022-08-18T11:48:08.776Z,11.30
2022-08-18T11:51:18.057Z,10.73
2022-08-18T11:54:33.523Z,10.60
2022-08-18T12:01:03.208Z,10.00
2022-08-18T12:04:15.441Z,10.00
2022-08-18T12:07:26.682Z,10.93
2022-08-18T12:10:29.244Z,11.30
2022-08-18T12:13:31.353Z,12.65
2022-08-18T12:19:34.951Z,11.00
2022-08-18T12:22:37.307Z,11.95
2022-08-18T12:25:38.859Z,12.25
2022-08-18T12:28:40.356Z,11.73
2022-08-18T12:31:42.478Z,12.80
2022-08-18T12:34:49.794Z,13.50
2022-08-18T12:41:18.637Z,13.35
2022-08-18T12:44:27.131Z,13.43
2022-08-18T12:54:12.652Z,14.77
2022-08-18T12:57:50.510Z,15.30
2022-08-18T13:03:45.467Z,13.88
2022-08-18T13:07:07.987Z,16.65
2022-08-18T13:10:09.981Z,13.85
2022-08-18T13:13:31.293Z,12.98
2022-08-18T13:16:53.424Z,17.63
2022-08-18T13:19:56.080Z,14.40
2022-08-18T13:22:57.493Z,13.85
2022-08-18T13:26:02.166Z,14.30
2022-08-18T13:29:05.062Z,14.18
2022-08-18T13:32:11.689Z,11.88
2022-08-18T13:35:13.766Z,13.30
2022-08-18T13:38:22.085Z,14.13
2022-08-18T13:44:33.854Z,14.27
2022-08-18T13:47:38.232Z,13.73
2022-08-18T13:50:40.304Z,11.68
2022-08-18T13:53:51.110Z,11.43
2022-08-18T14:00:01.529Z,9.65
2022-08-18T14:03:03.307Z,7.70
2022-08-18T14:06:06.981Z,9.30
2022-08-18T14:09:19.555Z,8.65
2022-08-18T14:12:24.569Z,8.40
2022-08-18T14:15:30.782Z,7.47
2022-08-18T14:18:32.743Z,7.53
2022-08-18T14:21:55.540Z,7.95
2022-08-18T14:25:15.714Z,7.03
2022-08-18T14:28:24.715Z,8.25
2022-08-18T14:31:26.793Z,7.10
2022-08-18T14:34:29.271Z,7.55
2022-08-18T14:37:30.861Z,7.40
2022-08-18T14:40:36.337Z,7.43
2022-08-18T14:44:11.455Z,6.57
2022-08-18T14:47:07.213Z,7.30
2022-08-18T14:50:12.727Z,7.15
2022-08-18T14:53:20.072Z,7.15
2022-08-18T14:56:21.432Z,6.75
2022-08-18T14:59:25.047Z,7.30
2022-08-18T15:02:27.019Z,6.68
2022-08-18T15:05:33.832Z,5.88
2022-08-18T15:08:36.559Z,6.70
2022-08-18T15:15:02.044Z,6.25
2022-08-18T15:18:05.131Z,6.68
2022-08-18T15:21:38.490Z,6.38
2022-08-18T15:24:59.440Z,6.68
2022-08-18T15:28:01.243Z,6.53
2022-08-18T15:31:49.626Z,6.45
2022-08-18T15:34:27.472Z,6.10
2022-08-18T15:37:28.996Z,6.45
2022-08-18T15:40:35.521Z,6.72
2022-08-18T15:43:40.049Z,5.65
2022-08-18T15:46:53.209Z,5.22
2022-08-18T15:49:55.177Z,5.55
2022-08-18T15:52:58.736Z,6.47
2022-08-18T15:56:04.118Z,6.10
2022-08-18T15:59:07.272Z,7.00
2022-08-18T16:02:11.842Z,7.57
2022-08-18T16:05:14.101Z,7.68
2022-08-18T16:08:17.813Z,7.68
2022-08-18T16:11:24.592Z,8.02
2022-08-18T16:14:31.984Z,6.93
2022-08-18T16:17:34.184Z,8.70
2022-08-18T16:20:36.322Z,7.50
2022-08-18T16:23:38.397Z,6.70
2022-08-18T16:26:39.735Z,5.78
2022-08-18T16:29:41.062Z,6.10
2022-08-18T16:32:42.509Z,5.38
2022-08-18T16:35:45.374Z,6.10
2022-08-18T16:38:47.192Z,5.30
2022-08-18T16:41:48.573Z,5.28
2022-08-18T16:44:50.034Z,6.18
2022-08-18T16:47:51.527Z,5.97
2022-08-18T16:50:53.053Z,5.40
2022-08-18T16:53:54.493Z,6.20
2022-08-18T16:56:57.572Z,6.93
2022-08-18T17:00:17.709Z,6.35
2022-08-18T17:03:37.944Z,6.03
2022-08-18T17:06:47.087Z,5.53
2022-08-18T17:09:48.959Z,5.50
2022-08-18T17:12:50.313Z,7.45
2022-08-18T17:15:52.019Z,5.85
2022-08-18T17:18:54.073Z,6.28
2022-08-18T17:21:55.598Z,5.43
2022-08-18T17:24:59.776Z,7.45
2022-08-18T17:28:02.009Z,6.57
2022-08-18T17:31:07.155Z,6.90
2022-08-18T17:34:11.784Z,6.97
2022-08-18T17:37:15.145Z,7.10
2022-08-18T17:40:18.015Z,8.35
2022-08-18T17:43:20.774Z,9.52
2022-08-18T17:46:27.913Z,8.45
2022-08-18T17:49:54.228Z,9.55
2022-08-18T17:53:09.700Z,10.30
2022-08-18T17:56:23.340Z,9.60
2022-08-18T17:59:46.237Z,8.68
2022-08-18T18:02:53.126Z,9.00
2022-08-18T18:05:58.398Z,9.40
2022-08-18T18:09:01.435Z,9.48
2022-08-18T18:15:41.004Z,9.35
2022-08-18T18:22:00.522Z,8.95
2022-08-18T18:25:06.542Z,8.93
2022-08-18T18:28:24.036Z,7.78
2022-08-18T18:31:27.643Z,9.15
2022-08-18T18:37:33.076Z,9.00
2022-08-18T18:40:34.818Z,9.32
2022-08-18T18:43:38.214Z,9.35
2022-08-18T18:46:41.275Z,9.18
2022-08-18T18:49:49.802Z,8.68
2022-08-18T18:52:57.141Z,8.23
2022-08-18T18:56:11.454Z,8.50
2022-08-18T18:59:16.983Z,8.77
2022-08-18T19:02:34.521Z,10.05
2022-08-18T19:05:49.423Z,9.88
2022-08-18T19:08:54.195Z,9.48
2022-08-18T19:12:03.497Z,9.15
2022-08-18T19:15:08.999Z,10.50
2022-08-18T19:18:18.939Z,9.55
2022-08-18T19:22:03.352Z,10.48
2022-08-18T19:24:59.824Z,10.50
2022-08-18T19:28:12.107Z,10.82
2022-08-18T19:31:23.195Z,10.57
2022-08-18T19:34:30.150Z,10.80
2022-08-18T19:37:56.039Z,10.00
2022-08-18T19:41:06.178Z,10.20
2022-08-18T19:47:13.524Z,10.30
2022-08-18T19:50:14.834Z,10.35
2022-08-18T19:53:28.189Z,10.07
2022-08-18T19:56:47.889Z,10.35
2022-08-18T19:59:49.243Z,11.10
2022-08-18T20:02:57.140Z,8.77
2022-08-18T20:05:58.430Z,8.68
2022-08-18T20:09:19.741Z,10.10
2022-08-18T20:12:39.231Z,9.10
2022-08-18T20:15:57.638Z,9.88
2022-08-18T20:18:59.940Z,9.50
2022-08-18T20:22:02.488Z,9.90
2022-08-18T20:25:08.232Z,9.55
2022-08-18T20:28:20.492Z,10.02
2022-08-18T20:31:22.592Z,11.15
2022-08-18T20:34:25.822Z,10.80
2022-08-18T20:37:30.319Z,9.20
2022-08-18T20:40:43.070Z,14.15
2022-08-18T20:43:44.451Z,10.00
2022-08-18T20:46:56.182Z,9.52
2022-08-18T20:50:12.750Z,10.27
2022-08-18T20:53:35.049Z,9.77
2022-08-18T20:56:44.251Z,12.55
2022-08-18T20:59:52.835Z,12.55
2022-08-18T21:02:55.969Z,10.57
2022-08-18T21:05:58.322Z,8.13
2022-08-18T21:08:59.732Z,9.23
2022-08-18T21:12:01.124Z,10.32
2022-08-18T21:15:07.675Z,8.77
2022-08-18T21:18:17.333Z,10.45
2022-08-18T21:21:27.181Z,10.32
2022-08-18T21:24:31.592Z,9.27
2022-08-18T21:27:36.015Z,10.05
2022-08-18T21:30:38.010Z,9.23
2022-08-18T21:33:39.771Z,10.93
2022-08-18T21:36:54.587Z,9.73
2022-08-18T21:39:57.615Z,12.95
2022-08-18T21:42:59.394Z,10.85
2022-08-18T21:46:01.461Z,10.93
2022-08-18T21:49:03.703Z,11.02
2022-08-18T21:52:05.394Z,9.90
2022-08-18T21:55:17.487Z,8.80
2022-08-18T21:58:32.765Z,9.93
2022-08-18T22:01:37.015Z,10.55
2022-08-18T22:04:45.234Z,9.52
2022-08-18T22:07:47.775Z,10.40
2022-08-18T22:11:59.377Z,10.10
2022-08-18T22:14:55.187Z,10.57
2022-08-18T22:17:57.086Z,10.63
2022-08-18T22:21:00.159Z,11.38
2022-08-18T22:24:19.827Z,10.20
2022-08-18T22:27:22.375Z,9.93
2022-08-18T22:30:23.681Z,11.85
2022-08-18T22:33:25.115Z,11.32
2022-08-18T22:36:27.580Z,10.30
2022-08-18T22:39:30.583Z,9.25
2022-08-18T22:42:33.422Z,11.27
2022-08-18T22:45:34.860Z,10.63
2022-08-18T22:48:37.046Z,10.18
2022-08-18T22:51:38.862Z,10.90
2022-08-18T22:54:40.318Z,10.43
2022-08-18T22:57:44.817Z,11.55
2022-08-18T23:00:48.446Z,10.57
2022-08-18T23:03:49.744Z,11.32
2022-08-18T23:06:52.472Z,9.80
2022-08-18T23:09:53.926Z,10.18
2022-08-18T23:12:55.274Z,10.02
2022-08-18T23:16:12.816Z,9.90
2022-08-18T23:19:20.155Z,10.30
2022-08-18T23:22:21.443Z,10.13
2022-08-18T23:25:22.790Z,10.77
2022-08-18T23:28:24.683Z,10.18
2022-08-18T23:31:25.989Z,11.10
2022-08-18T23:34:27.426Z,11.93
2022-08-18T23:37:28.814Z,10.65
2022-08-18T23:40:30.466Z,14.13
2022-08-18T23:43:31.810Z,11.00
2022-08-18T23:46:33.765Z,11.10
2022-08-18T23:49:36.430Z,12.55
2022-08-18T23:52:38.347Z,11.77
2022-08-18T23:55:39.657Z,12.40
2022-08-18T23:58:40.956Z,12.90
